Time;durP1;ratioP1;P1;durP2;ratioP2;P2;SDS_P1;SDS_P2;PMS_P1;PMS_P2;Temp;Humidity;BMP_temperature;BMP_pressure;BME280_temperature;BME280_humidity;BME280_pressure;Samples;Min_cycle;Max_cycle;Signal;HPM_P1;HPM_P2
2021/04/13 00:00:51;;;;;;;26.52;14.65;;;;;;;10.81;59.18;99863.81;5030829;28;19916;-48
2021/04/13 00:03:17;;;;;;;28.90;14.65;;;;;;;11.57;57.02;99867.94;5031197;28;20049;-50
2021/04/13 00:05:46;;;;;;;26.00;14.13;;;;;;;11.40;57.63;99864.06;5031646;28;20033;-51
2021/04/13 00:08:20;;;;;;;25.80;14.63;;;;;;;11.12;58.50;99862.44;5048987;28;20535;-51
2021/04/13 00:10:57;;;;;;;27.08;14.23;;;;;;;10.75;59.58;99864.63;5049509;28;20457;-48
2021/04/13 00:13:23;;;;;;;25.75;14.05;;;;;;;10.63;59.90;99866.25;5049619;28;20094;-51
2021/04/13 00:15:53;;;;;;;28.80;14.50;;;;;;;10.63;60.30;99861.75;5050762;28;20458;-49
2021/04/13 00:18:28;;;;;;;23.83;13.90;;;;;;;10.57;60.18;99863.38;5050693;28;20021;-50
2021/04/13 00:21:04;;;;;;;27.80;14.48;;;;;;;10.37;60.94;99867.78;5048879;28;20017;-52
2021/04/13 00:23:29;;;;;;;26.33;14.45;;;;;;;10.40;60.77;99862.09;5050969;28;20049;-49
2021/04/13 00:25:56;;;;;;;23.20;14.23;;;;;;;10.45;61.29;99859.66;5049741;28;20108;-51
2021/04/13 00:28:30;;;;;;;23.08;13.68;;;;;;;10.47;60.75;99857.63;5049160;28;20029;-52
2021/04/13 00:31:02;;;;;;;28.08;14.05;;;;;;;10.64;60.44;99865.22;5049631;28;20032;-50
2021/04/13 00:33:30;;;;;;;27.88;13.93;;;;;;;10.59;60.45;99862.38;5033271;28;20021;-50
2021/04/13 00:36:12;;;;;;;23.27;13.70;;;;;;;10.63;60.19;99861.75;5050901;28;20032;-50
2021/04/13 00:38:48;;;;;;;25.90;13.48;;;;;;;10.73;59.98;99850.72;5049406;28;20400;-49
2021/04/13 00:41:21;;;;;;;22.15;13.75;;;;;;;11.03;58.98;99858.34;5050539;28;20021;-52
2021/04/13 00:43:55;;;;;;;18.88;12.05;;;;;;;11.14;58.50;99855.06;5032808;28;20020;-50
2021/04/13 00:46:42;;;;;;;18.80;10.88;;;;;;;11.10;58.99;99849.34;5049303;28;20028;-51
2021/04/13 00:49:08;;;;;;;21.02;11.80;;;;;;;11.00;58.62;99848.91;5048907;28;20033;-52
2021/04/13 00:51:35;;;;;;;17.60;11.63;;;;;;;10.85;60.12;99851.78;5049497;28;20028;-51
2021/04/13 00:54:06;;;;;;;19.52;11.77;;;;;;;10.67;60.28;99843.53;5032701;28;20361;-48
2021/04/13 00:56:31;;;;;;;25.13;10.90;;;;;;;10.83;59.96;99855.63;5049311;28;20132;-52
2021/04/13 00:59:06;;;;;;;21.45;10.90;;;;;;;10.73;60.49;99848.84;5050470;28;20432;-51
2021/04/13 01:01:35;;;;;;;18.23;10.15;;;;;;;10.59;60.66;99852.53;5050479;28;20029;-49
2021/04/13 01:04:03;;;;;;;19.02;10.02;;;;;;;10.59;60.56;99852.53;5049028;28;20104;-49
2021/04/13 01:06:30;;;;;;;15.60;9.95;;;;;;;10.74;60.31;99841.72;5050479;28;20100;-47
2021/04/13 01:09:03;;;;;;;15.73;9.52;;;;;;;10.87;59.90;99840.91;5050056;28;20032;-51
2021/04/13 01:11:29;;;;;;;14.02;9.75;;;;;;;10.55;60.57;99838.00;5050368;28;20132;-51
2021/04/13 01:13:56;;;;;;;17.30;9.10;;;;;;;10.53;60.64;99840.84;5050093;28;20049;-48
2021/04/13 01:16:32;;;;;;;14.32;9.10;;;;;;;10.59;61.07;99841.06;5050747;28;20393;-50
2021/04/13 01:19:00;;;;;;;13.88;9.40;;;;;;;10.36;61.32;99805.81;5033810;28;20074;-49
2021/04/13 01:21:44;;;;;;;14.65;9.32;;;;;;;10.71;61.00;99831.47;5032501;28;20035;-51
2021/04/13 01:24:21;;;;;;;17.25;9.30;;;;;;;10.68;60.95;99830.03;5050015;28;20060;-47
2021/04/13 01:26:47;;;;;;;13.35;8.77;;;;;;;10.32;61.99;99833.81;5050160;28;20094;-48
2021/04/13 01:29:14;;;;;;;13.95;9.10;;;;;;;10.45;61.63;99845.50;5048964;28;20115;-50
2021/04/13 01:31:44;;;;;;;13.95;9.20;;;;;;;10.51;61.72;99836.75;5048804;28;20017;-50
2021/04/13 01:34:23;;;;;;;16.30;9.48;;;;;;;10.23;61.88;99826.19;5050843;28;20025;-49
2021/04/13 01:42:31;;;;;;;12.27;8.63;;;;;;;10.15;62.62;99816.53;5054457;28;20032;-49
2021/04/13 01:45:13;;;;;;;14.05;8.30;;;;;;;9.97;63.45;99820.53;5036009;28;20050;-51
2021/04/13 01:47:38;;;;;;;13.68;8.82;;;;;;;10.11;62.76;99825.91;5052373;28;20021;-47
2021/04/13 01:50:14;;;;;;;12.10;8.68;;;;;;;10.19;62.96;99823.09;5053941;28;20492;-49
2021/04/13 01:52:44;;;;;;;15.80;8.90;;;;;;;9.98;63.38;99829.34;5053758;28;20035;-49
2021/04/13 01:55:22;;;;;;;13.93;8.82;;;;;;;9.97;63.89;99828.50;5053641;28;20031;-51
2021/04/13 01:57:51;;;;;;;13.02;8.85;;;;;;;9.89;64.32;99830.53;5037119;28;20032;-48
2021/04/13 02:00:26;;;;;;;13.40;8.88;;;;;;;9.93;64.16;99824.63;5053188;28;20131;-49
2021/04/13 02:02:57;;;;;;;13.55;8.90;;;;;;;9.87;64.25;99829.91;5052250;28;20103;-50
2021/04/13 02:05:26;;;;;;;11.77;8.55;;;;;;;9.69;64.88;99823.28;5052285;28;20028;-50
2021/04/13 02:08:00;;;;;;;16.42;8.93;;;;;;;9.63;64.78;99825.88;5052328;28;20028;-51
2021/04/13 02:10:45;;;;;;;13.18;9.05;;;;;;;9.74;64.96;99823.50;5053140;28;20075;-49
2021/04/13 02:13:18;;;;;;;13.18;9.15;;;;;;;9.81;64.73;99820.88;5052195;28;20024;-48
2021/04/13 02:16:09;;;;;;;14.10;9.23;;;;;;;10.00;64.34;99821.19;5053144;28;20087;-48
2021/04/13 02:18:36;;;;;;;14.70;9.40;;;;;;;9.95;64.03;99821.75;5020781;28;20357;-50
2021/04/13 02:21:04;;;;;;;18.10;9.20;;;;;;;9.83;64.34;99826.00;5053353;28;20036;-48
2021/04/13 02:23:30;;;;;;;15.48;9.38;;;;;;;10.07;63.89;99820.19;5035494;28;20388;-48
2021/04/13 02:26:00;;;;;;;15.32;10.40;;;;;;;9.98;64.09;99816.88;5051540;28;20032;-50
2021/04/13 02:28:26;;;;;;;12.10;9.25;;;;;;;9.92;64.53;99819.53;5051482;28;20040;-47
2021/04/13 02:30:52;;;;;;;13.82;9.00;;;;;;;9.78;64.29;99805.31;5051475;28;20044;-51
2021/04/13 02:33:17;;;;;;;13.48;9.10;;;;;;;9.97;64.06;99822.38;5051651;28;20044;-49
2021/04/13 02:35:43;;;;;;;14.30;9.40;;;;;;;9.82;63.86;99806.56;5052867;28;20029;-51
2021/04/13 02:38:12;;;;;;;17.08;9.52;;;;;;;9.81;64.35;99817.41;5052499;28;20025;-51
2021/04/13 02:40:41;;;;;;;13.13;9.32;;;;;;;9.82;64.36;99817.19;5052632;28;20017;-48
2021/04/13 02:43:10;;;;;;;12.75;9.38;;;;;;;9.56;64.87;99816.03;5052948;28;20071;-49
2021/04/13 02:45:44;;;;;;;12.88;9.65;;;;;;;9.64;64.96;99827.53;5034292;28;20024;-49
2021/04/13 02:48:21;;;;;;;15.93;9.45;;;;;;;9.43;65.51;99823.13;5048501;28;20031;-51
2021/04/13 02:50:47;;;;;;;13.40;10.05;;;;;;;9.46;65.81;99825.38;5047425;28;20051;-51
2021/04/13 02:53:14;;;;;;;14.23;9.68;;;;;;;9.36;65.48;99831.84;5031255;28;20025;-50
2021/04/13 02:55:46;;;;;;;15.88;10.18;;;;;;;9.05;66.64;99823.44;5048686;28;20061;-49
2021/04/13 02:58:11;;;;;;;14.95;10.70;;;;;;;9.04;66.75;99825.25;5051492;28;20048;-51
2021/04/13 03:00:41;;;;;;;15.82;10.63;;;;;;;9.28;65.92;99839.94;5045958;28;20017;-49
2021/04/13 03:03:11;;;;;;;15.15;9.98;;;;;;;9.02;66.72;99848.50;5031280;28;20100;-51
2021/04/13 03:05:37;;;;;;;15.27;10.00;;;;;;;9.08;66.51;99845.13;5046153;28;20457;-50
2021/04/13 03:08:10;;;;;;;28.98;18.85;;;;;;;9.34;66.08;99857.75;5034468;28;20104;-50
2021/04/13 03:10:44;;;;;;;55.17;29.90;;;;;;;9.44;65.54;99862.75;5034578;28;20396;-52
2021/04/13 03:13:13;;;;;;;42.10;24.75;;;;;;;9.36;65.91;99868.19;5052208;28;20021;-50
2021/04/13 03:15:39;;;;;;;53.67;27.50;;;;;;;9.23;66.18;99862.78;5051099;28;20025;-51
2021/04/13 03:18:13;;;;;;;22.40;11.48;;;;;;;9.32;65.87;99866.94;5050762;28;20040;-51
2021/04/13 03:20:44;;;;;;;16.75;10.50;;;;;;;9.27;65.83;99875.50;5050838;28;20028;-49
2021/04/13 03:23:09;;;;;;;17.08;10.35;;;;;;;9.19;67.01;99884.44;5034487;28;20063;-52
2021/04/13 03:25:37;;;;;;;16.10;10.43;;;;;;;9.27;66.19;99883.47;5034392;28;20032;-51
2021/04/13 03:28:04;;;;;;;17.17;10.30;;;;;;;9.35;66.39;99888.63;5034411;28;20029;-49
2021/04/13 03:30:32;;;;;;;16.73;10.52;;;;;;;9.22;66.91;99882.41;5050689;28;20040;-50
2021/04/13 03:33:07;;;;;;;17.65;11.35;;;;;;;9.27;67.11;99888.78;5033888;28;20024;-47
2021/04/13 03:35:36;;;;;;;19.50;10.52;;;;;;;9.17;66.84;99893.56;5050629;28;20112;-47
2021/04/13 03:38:03;;;;;;;16.88;11.80;;;;;;;9.30;66.24;99888.38;5050541;28;20020;-50
2021/04/13 03:40:30;;;;;;;21.45;12.18;;;;;;;9.26;66.22;99886.31;5050636;28;20465;-47
2021/04/13 03:43:06;;;;;;;38.13;21.25;;;;;;;9.31;66.12;99894.50;5050466;28;20108;-48
2021/04/13 03:45:32;;;;;;;88.90;44.28;;;;;;;9.27;66.49;99899.41;5033858;28;20461;-51
2021/04/13 03:48:00;;;;;;;24.23;13.23;;;;;;;9.15;66.88;99893.75;5051697;28;20021;-51
2021/04/13 03:50:27;;;;;;;20.88;12.02;;;;;;;9.26;67.46;99889.78;5050305;28;20025;-51
2021/04/13 03:53:17;;;;;;;22.77;12.50;;;;;;;9.35;66.23;99888.63;5050357;28;20020;-51
2021/04/13 03:56:05;;;;;;;27.75;12.23;;;;;;;9.29;66.50;99888.56;5049261;28;20155;-50
2021/04/13 03:58:36;;;;;;;24.63;13.13;;;;;;;9.17;66.95;99880.31;5051693;28;20031;-48
2021/04/13 04:01:02;;;;;;;25.80;13.00;;;;;;;9.17;67.58;99883.78;5051306;28;20522;-48
2021/04/13 04:03:33;;;;;;;24.70;14.20;;;;;;;9.33;65.63;99861.44;5051128;28;20029;-50
2021/04/13 04:05:59;;;;;;;25.55;14.75;;;;;;;9.34;65.83;99875.53;5033645;28;20037;-51
2021/04/13 04:08:49;;;;;;;24.60;13.98;;;;;;;9.28;66.21;99879.78;5050251;28;20131;-49
2021/04/13 04:11:15;;;;;;;32.53;13.77;;;;;;;9.54;65.28;99886.34;5050191;28;20120;-49
2021/04/13 04:13:48;;;;;;;25.55;13.20;;;;;;;9.62;65.52;99880.88;5050462;28;20070;-52
2021/04/13 04:16:41;;;;;;;30.33;14.20;;;;;;;9.56;65.14;99876.34;5032295;28;20036;-48
2021/04/13 04:19:21;;;;;;;24.95;14.25;;;;;;;9.16;66.52;99895.41;5050068;28;20501;-50
2021/04/13 04:21:58;;;;;;;140.35;63.28;;;;;;;9.33;65.69;99872.06;5048868;28;20496;-47
2021/04/13 04:24:42;;;;;;;29.20;14.90;;;;;;;9.32;66.17;99890.84;5033462;28;20025;-51
2021/04/13 04:27:36;;;;;;;24.95;14.50;;;;;;;9.52;65.56;99883.88;5049601;28;20115;-49
2021/04/13 04:30:28;;;;;;;19.35;12.40;;;;;;;9.56;65.39;99879.00;5048125;28;20064;-51
2021/04/13 04:32:54;;;;;;;22.85;15.55;;;;;;;9.61;64.67;99889.84;5049587;28;20472;-48
2021/04/13 04:35:42;;;;;;;31.98;18.42;;;;;;;9.47;65.44;99877.50;5048895;28;20044;-49
2021/04/13 04:38:13;;;;;;;36.15;20.10;;;;;;;9.62;65.17;99878.22;5046619;28;20039;-49
2021/04/13 04:40:49;;;;;;;45.88;26.38;;;;;;;9.81;64.45;99882.03;5047735;28;20021;-53
2021/04/13 04:43:17;;;;;;;41.88;25.10;;;;;;;9.71;64.88;99879.72;5046015;28;20037;-50
2021/04/13 04:45:42;;;;;;;48.92;24.02;;;;;;;9.39;66.11;99881.91;5046078;28;20453;-51
2021/04/13 04:48:21;;;;;;;42.22;19.17;;;;;;;9.58;65.99;99882.28;5047993;28;20039;-49
2021/04/13 04:50:47;;;;;;;29.98;16.20;;;;;;;9.83;65.17;99881.84;5047202;28;20037;-49
2021/04/13 04:53:16;;;;;;;27.73;13.98;;;;;;;9.75;65.44;99885.47;5048911;28;20523;-51
2021/04/13 04:55:41;;;;;;;23.65;13.27;;;;;;;10.50;62.87;99896.28;5049532;28;20648;-49
2021/04/13 04:58:07;;;;;;;25.40;12.60;;;;;;;10.48;62.27;99896.50;5049313;28;20033;-52
2021/04/13 05:00:32;;;;;;;23.88;12.20;;;;;;;10.06;63.72;99897.50;5049242;28;20109;-52
2021/04/13 05:02:58;;;;;;;18.60;12.15;;;;;;;10.12;63.92;99899.38;5049318;28;20029;-49
2021/04/13 05:05:24;;;;;;;24.50;12.25;;;;;;;10.17;63.71;99891.63;5049255;28;20341;-47
2021/04/13 05:07:49;;;;;;;19.83;12.60;;;;;;;10.25;64.08;99895.97;5048758;28;20125;-50
2021/04/13 05:10:15;;;;;;;25.00;13.38;;;;;;;10.65;62.48;99880.19;5049186;28;20086;-51
2021/04/13 05:12:40;;;;;;;22.38;12.43;;;;;;;11.09;61.16;99884.16;5049045;28;20377;-47
2021/04/13 05:15:07;;;;;;;26.35;12.75;;;;;;;11.27;59.91;99879.06;5047641;28;20074;-51
2021/04/13 05:17:32;;;;;;;20.42;12.43;;;;;;;11.03;60.41;99877.78;5049025;28;20404;-49
2021/04/13 05:19:57;;;;;;;19.02;12.40;;;;;;;10.65;61.90;99870.34;5048833;28;20469;-50
2021/04/13 05:22:23;;;;;;;23.42;12.77;;;;;;;10.85;61.21;99883.72;5049091;28;20311;-53
2021/04/13 05:24:48;;;;;;;20.40;12.25;;;;;;;10.44;62.02;99884.59;5049017;28;20020;-52
2021/04/13 05:27:14;;;;;;;21.73;12.43;;;;;;;10.52;61.94;99871.13;5048822;28;20028;-50
2021/04/13 05:29:39;;;;;;;21.42;12.75;;;;;;;10.47;62.05;99884.22;5046659;28;20091;-48
2021/04/13 05:32:05;;;;;;;19.73;12.93;;;;;;;10.86;61.07;99869.38;5040877;28;20459;-50
2021/04/13 05:34:31;;;;;;;21.90;12.85;;;;;;;10.86;60.74;99864.03;5042144;28;20060;-50
2021/04/13 05:36:56;;;;;;;21.70;13.63;;;;;;;10.40;62.02;99874.56;5039819;28;20112;-50
2021/04/13 05:39:22;;;;;;;20.88;12.85;;;;;;;10.34;62.64;99861.03;5021402;28;20414;-52
2021/04/13 05:41:48;;;;;;;30.95;15.35;;;;;;;10.55;62.11;99878.72;5036570;28;20053;-48
2021/04/13 05:44:15;;;;;;;26.30;14.25;;;;;;;11.17;60.62;99867.97;5038106;28;20026;-50
2021/04/13 05:46:40;;;;;;;22.92;14.57;;;;;;;10.89;60.96;99853.00;5038733;28;20031;-49
2021/04/13 05:49:06;;;;;;;25.50;14.02;;;;;;;10.94;60.98;99869.16;5046575;28;20120;-50
2021/04/13 05:51:31;;;;;;;24.55;13.77;;;;;;;10.96;60.89;99872.44;5048688;28;20480;-51
2021/04/13 05:53:57;;;;;;;28.00;15.13;;;;;;;10.74;62.08;99860.34;5048530;28;20029;-48
2021/04/13 05:56:28;;;;;;;28.52;14.70;;;;;;;10.71;62.64;99860.75;5039707;28;20041;-51
2021/04/13 05:58:55;;;;;;;33.90;19.88;;;;;;;10.84;62.34;99863.44;5030945;28;20025;-50
2021/04/13 06:01:20;;;;;;;24.77;14.43;;;;;;;11.26;61.00;99871.25;5028980;28;20048;-50
2021/04/13 06:03:46;;;;;;;23.63;14.70;;;;;;;11.72;59.12;99868.53;5028580;28;20079;-50
2021/04/13 06:06:13;;;;;;;28.98;15.70;;;;;;;12.21;57.73;99865.59;5049001;28;20037;-51
2021/04/13 06:08:39;;;;;;;27.02;14.07;;;;;;;12.01;58.81;99863.78;5047402;28;20633;-49
2021/04/13 06:11:04;;;;;;;28.10;14.52;;;;;;;12.08;58.21;99866.44;5048302;28;20095;-48
2021/04/13 06:13:30;;;;;;;24.88;13.80;;;;;;;12.39;57.82;99872.91;5048469;28;20033;-49
2021/04/13 06:15:56;;;;;;;41.28;21.38;;;;;;;13.11;56.06;99870.84;5036291;28;20037;-51
2021/04/13 06:18:22;;;;;;;23.05;13.45;;;;;;;13.54;54.12;99870.13;5030630;28;20033;-48
2021/04/13 06:20:47;;;;;;;20.95;13.10;;;;;;;13.38;55.42;99867.97;5031743;28;20454;-52
2021/04/13 06:23:13;;;;;;;21.08;12.82;;;;;;;13.25;55.71;99876.88;5039758;28;20032;-49
2021/04/13 06:25:38;;;;;;;21.05;13.20;;;;;;;13.10;55.14;99871.88;5052450;28;20028;-50
2021/04/13 06:28:04;;;;;;;22.20;13.65;;;;;;;12.59;56.58;99868.28;5046825;28;20032;-51
2021/04/13 06:30:30;;;;;;;22.30;13.27;;;;;;;13.34;55.72;99872.13;5049863;28;20044;-52
2021/04/13 06:32:57;;;;;;;20.60;12.45;;;;;;;13.27;56.37;99874.84;5050063;28;20040;-52
2021/04/13 06:35:23;;;;;;;16.27;11.45;;;;;;;13.02;56.98;99858.78;5032224;28;20041;-52
2021/04/13 06:37:49;;;;;;;20.90;11.70;;;;;;;13.17;56.50;99856.59;5043231;28;20021;-52
2021/04/13 06:40:28;;;;;;;19.65;12.43;;;;;;;13.31;55.78;99852.00;5033765;28;20047;-51
2021/04/13 06:42:56;;;;;;;16.33;11.35;;;;;;;13.36;56.17;99856.69;5050173;28;20175;-52
2021/04/13 06:45:42;;;;;;;20.48;10.82;;;;;;;14.08;54.59;99852.47;5051969;28;20477;-53
2021/04/13 06:48:23;;;;;;;20.27;11.35;;;;;;;14.62;53.47;99849.97;5050097;28;20108;-52
2021/04/13 06:51:11;;;;;;;16.60;10.38;;;;;;;14.58;52.67;99838.09;5032577;28;20019;-52
2021/04/13 06:54:05;;;;;;;14.68;10.25;;;;;;;15.05;51.98;99838.19;5031568;28;20118;-52
2021/04/13 06:56:46;;;;;;;16.23;10.07;;;;;;;15.11;51.61;99839.13;5031761;28;20022;-53
2021/04/13 06:59:18;;;;;;;15.98;10.43;;;;;;;15.15;50.89;99834.94;5030383;28;20033;-52
2021/04/13 07:01:54;;;;;;;18.08;10.02;;;;;;;16.07;47.94;99838.06;5031555;28;20017;-51
2021/04/13 07:04:31;;;;;;;18.17;10.50;;;;;;;15.51;49.77;99845.69;5030240;28;20033;-49
2021/04/13 07:07:00;;;;;;;13.52;9.98;;;;;;;15.42;50.37;99837.16;5030340;28;20484;-49
2021/04/13 07:09:47;;;;;;;17.35;10.75;;;;;;;14.92;51.32;99832.22;5030001;28;20067;-51
2021/04/13 07:12:25;;;;;;;14.73;10.95;;;;;;;14.52;52.75;99830.09;5031376;28;20100;-49
2021/04/13 07:15:15;;;;;;;14.77;10.57;;;;;;;14.93;51.65;99825.84;5032951;28;20029;-49
2021/04/13 07:18:04;;;;;;;15.48;10.57;;;;;;;14.65;52.17;99821.91;5044118;28;20027;-51
2021/04/13 07:20:42;;;;;;;20.52;11.02;;;;;;;14.67;52.78;99817.13;5022714;28;20028;-50
2021/04/13 07:23:14;;;;;;;18.38;10.88;;;;;;;14.65;53.08;99824.59;5042359;28;20563;-51
2021/04/13 07:25:44;;;;;;;15.70;10.75;;;;;;;14.51;53.26;99831.13;5030726;28;20433;-49
2021/04/13 07:28:22;;;;;;;15.32;10.63;;;;;;;14.44;52.39;99832.03;5045791;28;20021;-51
2021/04/13 07:31:04;;;;;;;17.10;11.00;;;;;;;15.05;51.16;99829.34;5032075;28;20481;-49
2021/04/13 07:33:31;;;;;;;21.45;10.77;;;;;;;15.05;50.20;99822.09;5049605;28;20033;-51
2021/04/13 07:36:25;;;;;;;18.05;10.43;;;;;;;14.27;52.92;99821.16;5050674;28;20032;-52
2021/04/13 07:38:51;;;;;;;16.75;10.45;;;;;;;14.18;52.78;99816.31;5027915;28;20045;-51
2021/04/13 07:41:35;;;;;;;14.10;10.20;;;;;;;14.27;52.54;99817.66;5032805;28;20031;-51
2021/04/13 07:44:07;;;;;;;18.08;10.85;;;;;;;15.04;50.68;99806.25;5049563;28;20104;-52
2021/04/13 07:46:51;;;;;;;12.88;10.15;;;;;;;15.87;48.83;99814.31;5032343;28;20139;-51
2021/04/13 07:49:23;;;;;;;15.15;10.00;;;;;;;16.76;47.04;99812.00;5049643;28;20033;-49
2021/04/13 07:51:55;;;;;;;15.98;10.27;;;;;;;16.96;46.19;99816.09;5050028;28;20029;-52
2021/04/13 07:54:39;;;;;;;16.05;10.48;;;;;;;17.58;44.90;99799.03;5049348;28;20032;-51
2021/04/13 07:57:26;;;;;;;14.80;9.90;;;;;;;17.65;44.10;99806.91;5040529;28;20131;-52
2021/04/13 08:00:04;;;;;;;13.63;9.80;;;;;;;17.66;44.15;99806.66;5040396;28;20033;-52
2021/04/13 08:02:29;;;;;;;14.18;10.00;;;;;;;17.99;43.73;99815.72;5041122;28;20077;-53
2021/04/13 08:04:57;;;;;;;16.00;10.27;;;;;;;18.14;43.41;99813.25;5039592;28;20139;-50
2021/04/13 08:07:24;;;;;;;15.00;10.93;;;;;;;18.36;43.44;99810.50;5039115;28;20047;-51
2021/04/13 08:10:12;;;;;;;19.75;10.73;;;;;;;18.73;42.04;99809.81;5039203;28;20056;-52
2021/04/13 08:12:57;;;;;;;14.32;9.85;;;;;;;18.91;42.47;99813.22;5041380;28;20032;-51
2021/04/13 08:15:38;;;;;;;13.77;10.40;;;;;;;19.05;42.62;99806.31;5039708;28;20021;-49
2021/04/13 08:18:07;;;;;;;15.60;9.90;;;;;;;18.94;42.82;99813.53;5039863;28;20026;-52
2021/04/13 08:20:38;;;;;;;16.45;9.88;;;;;;;19.33;43.40;99805.16;5039780;28;20025;-53
2021/04/13 08:23:10;;;;;;;15.10;10.45;;;;;;;19.53;40.79;99800.97;5039935;28;20111;-52
2021/04/13 08:25:47;;;;;;;25.38;10.27;;;;;;;19.00;42.59;99778.50;5038386;28;20341;-52
2021/04/13 08:28:28;;;;;;;18.30;10.73;;;;;;;19.58;40.41;99797.50;5040646;28;20041;-54
2021/04/13 08:34:03;;;;;;;19.15;11.07;;;;;;;17.84;44.26;99791.28;5039397;28;20044;-52
2021/04/13 08:36:32;;;;;;;20.70;10.82;;;;;;;18.17;45.54;99791.19;5040457;28;20055;-52
2021/04/13 08:39:18;;;;;;;;;;;;;;;18.98;42.64;99792.22;5044024;28;20029;-50
2021/04/13 08:41:45;;;;;;;19.73;11.27;;;;;;;18.27;44.37;99787.78;5050135;28;20417;-51
2021/04/13 08:44:35;;;;;;;17.90;11.95;;;;;;;17.91;45.37;99778.47;5047318;28;20437;-49
2021/04/13 08:47:04;;;;;;;17.40;12.13;;;;;;;18.05;44.44;99771.66;5040505;28;20117;-51
2021/04/13 08:49:45;;;;;;;20.67;11.80;;;;;;;18.27;45.04;99778.91;5048533;28;20070;-51
2021/04/13 08:52:19;;;;;;;18.52;11.52;;;;;;;18.53;43.85;99766.50;5025176;28;20129;-51
2021/04/13 08:54:47;;;;;;;16.98;11.93;;;;;;;18.52;45.20;99764.84;5035810;28;20493;-52
2021/04/13 08:57:19;;;;;;;16.10;11.60;;;;;;;18.94;44.44;99765.00;5038163;28;20030;-51
2021/04/13 08:59:46;;;;;;;16.70;12.00;;;;;;;19.00;44.19;99765.00;5035218;28;20508;-51
2021/04/13 09:02:33;;;;;;;20.35;12.23;;;;;;;19.15;43.08;99751.63;5038825;28;20021;-52
2021/04/13 09:05:10;;;;;;;19.73;12.93;;;;;;;19.47;43.02;99758.84;5036521;28;20029;-52
2021/04/13 09:07:56;;;;;;;18.67;10.80;;;;;;;19.62;44.55;99750.81;5040915;28;20083;-52
2021/04/13 09:10:42;;;;;;;21.70;11.75;;;;;;;19.92;42.79;99746.66;5029218;28;20131;-51
2021/04/13 09:13:22;;;;;;;18.25;12.60;;;;;;;19.27;44.33;99746.06;5036915;28;20457;-52
2021/04/13 09:16:08;;;;;;;19.98;11.68;;;;;;;19.64;42.28;99737.88;5034318;28;20076;-50
2021/04/13 09:18:46;;;;;;;21.10;12.07;;;;;;;19.56;42.18;99741.09;5027479;28;20067;-50
2021/04/13 09:21:20;;;;;;;17.90;12.32;;;;;;;19.51;42.54;99736.47;5039781;28;20055;-52
2021/04/13 09:23:54;;;;;;;19.58;12.98;;;;;;;19.48;41.95;99730.78;5032080;28;20047;-51
2021/04/13 09:26:38;;;;;;;21.42;12.65;;;;;;;18.90;44.40;99726.13;5031726;28;20341;-51
2021/04/13 09:29:04;;;;;;;18.80;12.77;;;;;;;19.24;43.31;99716.91;5047681;28;20021;-51
2021/04/13 09:31:41;;;;;;;23.25;12.90;;;;;;;19.02;44.06;99717.84;5031263;28;20032;-51
2021/04/13 09:34:10;;;;;;;19.60;13.75;;;;;;;18.85;45.19;99717.19;5049198;28;20478;-51
2021/04/13 09:36:54;;;;;;;20.38;12.50;;;;;;;19.25;43.49;99699.66;5049194;28;20072;-53
2021/04/13 09:39:36;;;;;;;20.58;14.43;;;;;;;19.57;42.91;99701.41;5049109;28;20495;-53
2021/04/13 09:42:19;;;;;;;20.75;12.75;;;;;;;19.85;42.24;99706.38;5047404;28;20113;-50
2021/04/13 09:44:54;;;;;;;21.98;13.77;;;;;;;19.40;43.17;99699.72;5047664;28;20025;-52
2021/04/13 09:47:47;;;;;;;24.58;13.40;;;;;;;18.97;44.46;99703.53;5048961;28;20044;-53
2021/04/13 09:50:20;;;;;;;20.10;12.80;;;;;;;19.73;42.95;99692.31;5048817;28;20080;-52
2021/04/13 09:53:23;;;;;;;16.75;12.02;;;;;;;19.55;42.52;99701.66;5048121;28;20396;-50
2021/04/13 09:56:07;;;;;;;22.63;12.38;;;;;;;19.72;41.71;99701.50;5052563;28;20032;-50
2021/04/13 09:59:01;;;;;;;19.38;11.85;;;;;;;19.51;42.37;99697.88;5052331;28;20032;-53
2021/04/13 10:01:57;;;;;;;20.73;12.60;;;;;;;18.95;44.17;99695.69;5052213;28;20090;-52
2021/04/13 10:04:26;;;;;;;19.05;12.27;;;;;;;18.98;44.37;99695.16;5053026;28;20032;-54
2021/04/13 10:07:35;;;;;;;23.00;12.20;;;;;;;19.82;42.48;99701.53;5033353;28;20104;-50
2021/04/13 10:10:01;;;;;;;17.67;12.30;;;;;;;20.28;41.20;99693.50;5004803;28;20049;-53
2021/04/13 10:12:52;;;;;;;18.48;11.90;;;;;;;20.41;41.47;99689.47;5030592;28;20033;-52
2021/04/13 10:15:35;;;;;;;20.67;11.45;;;;;;;20.58;41.06;99691.91;5030651;28;20033;-52
2021/04/13 10:18:06;;;;;;;24.15;13.10;;;;;;;20.50;41.35;99689.72;5030695;28;20029;-52
2021/04/13 10:20:44;;;;;;;17.83;11.73;;;;;;;20.60;40.87;99694.34;5030246;28;20048;-53
2021/04/13 10:23:35;;;;;;;19.33;12.02;;;;;;;20.76;40.50;99690.56;5032051;28;20029;-51
2021/04/13 10:26:22;;;;;;;20.13;11.77;;;;;;;21.09;40.28;99681.06;5020665;28;20069;-51
2021/04/13 10:29:09;;;;;;;17.95;11.85;;;;;;;21.04;39.74;99689.19;5032429;28;20044;-51
2021/04/13 10:31:34;;;;;;;18.20;12.27;;;;;;;20.87;39.39;99685.97;5032549;28;20459;-52
2021/04/13 10:34:27;;;;;;;20.95;11.40;;;;;;;20.72;39.92;99677.88;5032527;28;20080;-50
2021/04/13 10:37:30;;;;;;;16.42;11.52;;;;;;;20.68;40.28;99680.31;5036101;28;20087;-52
2021/04/13 10:40:05;;;;;;;21.20;12.18;;;;;;;20.72;40.03;99686.78;5052207;28;20020;-53
2021/04/13 10:43:12;;;;;;;20.90;12.57;;;;;;;20.89;39.80;99681.09;5050954;28;20511;-52
2021/04/13 10:46:05;;;;;;;19.23;12.50;;;;;;;20.85;39.92;99670.00;5022718;28;20041;-51
2021/04/13 10:48:53;;;;;;;17.20;11.98;;;;;;;20.92;40.12;99675.13;5052011;28;20468;-53
2021/04/13 10:51:56;;;;;;;19.90;12.70;;;;;;;20.80;40.13;99671.91;5052124;28;20025;-53
2021/04/13 10:54:37;;;;;;;19.05;12.52;;;;;;;20.30;41.29;99672.44;5052138;28;20139;-51
2021/04/13 10:57:02;;;;;;;;;;;;;;;20.50;41.27;99662.72;5052227;28;20124;-50
2021/04/13 11:00:01;;;;;;;18.83;12.82;;;;;;;20.33;41.71;99662.16;5052060;28;19909;-51
2021/04/13 11:03:04;;;;;;;20.45;15.07;;;;;;;20.55;41.58;99660.00;5052060;28;20021;-49
2021/04/13 11:06:02;;;;;;;23.25;13.98;;;;;;;20.79;41.68;99663.00;5051065;28;20047;-49
2021/04/13 11:08:27;;;;;;;20.85;13.05;;;;;;;20.16;42.73;99654.31;4998764;28;20041;-49
2021/04/13 11:11:10;;;;;;;16.25;12.27;;;;;;;20.38;41.59;99645.97;5051539;28;20045;-52
2021/04/13 11:14:06;;;;;;;22.88;13.45;;;;;;;20.25;41.60;99645.41;5050271;28;20461;-52
2021/04/13 11:17:02;;;;;;;21.05;12.60;;;;;;;19.52;43.97;99654.44;5051435;28;20071;-52
2021/04/13 11:20:04;;;;;;;19.63;13.15;;;;;;;19.78;44.19;99656.41;5051720;28;20028;-52
2021/04/13 11:23:04;;;;;;;18.83;13.00;;;;;;;19.84;44.75;99652.69;5051755;28;20155;-50
2021/04/13 11:25:42;;;;;;;17.30;12.98;;;;;;;19.64;44.37;99662.28;5051773;28;20369;-54
2021/04/13 11:28:32;;;;;;;21.77;12.18;;;;;;;19.60;45.03;99663.91;5050321;28;20040;-51
2021/04/13 11:31:14;;;;;;;21.77;13.00;;;;;;;19.49;45.40;99657.66;5051862;28;20027;-53
2021/04/13 11:34:10;;;;;;;20.73;12.52;;;;;;;19.16;45.58;99653.47;5051748;28;20374;-52
2021/04/13 11:36:58;;;;;;;21.35;12.55;;;;;;;18.78;46.50;99650.00;5051596;28;20047;-53
2021/04/13 11:39:39;;;;;;;20.83;12.68;;;;;;;18.61;48.00;99650.16;5049941;28;20032;-53
2021/04/13 11:42:09;;;;;;;20.40;13.00;;;;;;;18.81;47.21;99652.22;5051799;28;20059;-53
2021/04/13 11:44:40;;;;;;;;;;;;;;;18.95;47.54;99652.56;5050751;28;20028;-53
2021/04/13 11:47:10;;;;;;;21.27;14.38;;;;;;;18.57;47.75;99643.66;5050794;28;19916;-53
2021/04/13 11:49:38;;;;;;;19.92;13.82;;;;;;;18.75;47.87;99642.41;5050047;28;20111;-52
2021/04/13 11:52:41;;;;;;;21.08;15.13;;;;;;;19.01;46.95;99642.59;5049209;28;20167;-51
2021/04/13 11:55:32;;;;;;;20.13;14.18;;;;;;;19.11;48.08;99638.09;5049643;28;20131;-53
2021/04/13 11:58:09;;;;;;;18.10;13.18;;;;;;;19.11;47.49;99630.00;5051438;28;20089;-53
2021/04/13 12:00:34;;;;;;;21.30;13.70;;;;;;;18.44;50.71;99619.84;5051084;28;20028;-53
2021/04/13 12:03:04;;;;;;;19.02;14.27;;;;;;;18.34;51.03;99623.28;5049960;28;20492;-49
2021/04/13 12:05:32;;;;;;;19.63;12.43;;;;;;;17.97;50.64;99614.09;5049733;28;20048;-51